Etusivu
METAR-TAF:

METAR-TAF

Lentoasemat :

Vaasa, Suomi

Vaasan lentoasema

Leveyspiiri: 63-03N, Pituuspiiri: 021-46E, korkeus merenpinnasta: 4 m

Tämänhetkinen sää

Tämä raportti tehtiin 37 minuuttia sitten, kello 23.20 UTC
Tuuli 4 kn idästä, vaihdellen koillisen ja idän/kaakon välillä
Lämpötila -11°C
Kosteus 85%
Ilmanpaine 1001 hPa
Näkyvyys 10 km tai enemmän
heikkoa lumisadetta

METAR: EFVA 172320Z AUTO 08004KT 050V110 9999 -SN SCT036/// BKN061/// M11/M13 Q1001

Aika: 01:57 (23:57 UTC)

Sääennuste

Tämä raportti tehtiin 32 minuuttia sitten, kello 23.25 UTC
Ennuste voimassa 18. päivästä klo 00 UTC - 18. päivään klo 24 UTC
Tuuli 4 kn idästä
Näkyvyys: 8000 m
Hajanaisia pilviä 3500 ft:n korkeudessa
Hajonneita pilviä 6000 ft:n korkeudessa
heikkoa lumisadetta
Ajoittain
18. päivästä klo 00 UTC - 18. päivään klo 24 UTC
Näkyvyys: 2000 m
Hajonneita pilviä 1000 ft:n korkeudessa

TAF: EFVA 172325Z 1800/1824 08004KT 8000 -SN SCT035 BKN060 TEMPO 1800/1824 2000 BKN010

Säähavainnot ja -ennusteet yli 4000 lentoasemalta (METAR- ja TAF-raportit).

Käytössä olevat sääasemat on merkitty karttaan keltaisilla ja punaisilla pisteillä.

Aseta hiiri pisteen päälle nähdäksesi sääaseman nimen.

Klikkaa sitten nähdäksesi säähavainnot ja -ennusteet.

Kartan vaihtaminen: klikkaa mustalla rastilla varustettuja vihreitä pisteitä, niin voit zoomata sisään; viivalla varustettua vihreää pistettä, niin voit zoomata ulos tai vihreitä nuolia, niin pääset viereisille kartoille.


METAR-TAF: